Main page
METAR-TAF:

METAR-TAF

Airports :

Baghdad, Iraq

Baghdad International Airport

latitude: 33-15-45N, longitude: 44-14-04E, elevation: 35 m

Current weather observation

The report was made 1 hour and 18 minutes ago, at 06:00 UTC
Wind 6 kt from the West
Temperature 32°C
Humidity 21%
Pressure 1010 hPa
Visibility: 8000 m

METAR: ORBI 260600Z 27006KT 8000 NSC 32/07 Q1010 NOSIG

Time: 10:18 (07:18 UTC)

Forecast

The report was made 3 hours and 18 minutes ago, at 04:00 UTC
Forecast valid from 26 at 06 UTC to 27 at 06 UTC
Wind 3 kt from variable directions
Visibility: 9000 m

TAF: ORBI 260400Z 2606/2706 VRB03KT 9000 NSC

Weather observations and forecasts of more than 4000 airports (METAR and TAF reports).

The available stations are represented by yellow and red dots on the map.

Hover mouse over dot to see the name of the station.

Then click to see weather observations and forecasts.

To change the map : click on the green buttons with a black cross to zoom in, on the green button with a dash to zoom out, or on the green arrows for adjacent maps.


METAR-TAF: